Terminal Aerodrome Forecast
Issued by NWS

Home | Current Version | Previous Version | Text Only | Print | Product List | Glossary On
Versions: 1 2 3 4 5 6 7 8 9 10 11 12 13 14 15 16 17 18 19 20 21
662
FTUS42 KMLB 032340
TAFFPR
TAF
KFPR 032340Z 0400/0424 VRB05KT P6SM VCSH FEW050 BKN080
      TEMPO 0400/0401 VRB10G20KT 3SM TSRA BKN020CB
     FM041000 23004KT P6SM SCT030 BKN060
     FM041500 25008KT P6SM VCTS SCT020CB BKN040
      TEMPO 0416/0420 3SM TSRA BKN025CB=

USA.gov is the U.S. government's official web portal to all federal, state and local government web resources and services.